createdAt,value
2022-07-30T00:01:22.713Z,82.40
2022-07-30T00:04:08.261Z,82.50
2022-07-30T00:06:53.543Z,82.60
2022-07-30T00:09:39.396Z,82.70
2022-07-30T00:12:27.811Z,82.70
2022-07-30T00:15:13.095Z,82.70
2022-07-30T00:17:58.643Z,82.80
2022-07-30T00:20:45.665Z,82.90
2022-07-30T00:23:33.656Z,82.90
2022-07-30T00:26:19.142Z,82.90
2022-07-30T00:29:05.777Z,82.80
2022-07-30T00:31:51.232Z,82.70
2022-07-30T00:34:37.067Z,83.50
2022-07-30T00:37:22.366Z,82.90
2022-07-30T00:40:09.301Z,83.10
2022-07-30T00:42:54.913Z,83.30
2022-07-30T00:45:40.475Z,83.50
2022-07-30T00:48:26.219Z,83.50
2022-07-30T00:51:11.979Z,83.50
2022-07-30T00:53:57.625Z,83.60
2022-07-30T00:56:43.261Z,83.70
2022-07-30T00:59:28.727Z,83.60
2022-07-30T01:02:14.206Z,83.70
2022-07-30T01:04:59.925Z,83.80
2022-07-30T01:07:45.483Z,83.60
2022-07-30T01:10:31.302Z,83.60
2022-07-30T01:13:16.551Z,83.70
2022-07-30T01:16:02.422Z,83.80
2022-07-30T01:19:07.550Z,83.60
2022-07-30T01:22:17.751Z,83.60
2022-07-30T01:25:30.959Z,83.60
2022-07-30T01:28:22.800Z,83.60
2022-07-30T01:31:10.781Z,83.90
2022-07-30T01:33:57.812Z,84.00
2022-07-30T01:36:47.033Z,84.10
2022-07-30T01:39:33.787Z,84.20
2022-07-30T01:42:20.919Z,84.30
2022-07-30T01:45:09.108Z,84.30
2022-07-30T01:47:57.592Z,84.40
2022-07-30T01:50:46.734Z,84.60
2022-07-30T01:53:35.869Z,84.50
2022-07-30T01:56:25.141Z,85.30
2022-07-30T01:59:14.087Z,84.60
2022-07-30T02:01:59.856Z,84.70
2022-07-30T02:04:45.546Z,84.70
2022-07-30T02:08:02.043Z,84.70
2022-07-30T02:10:54.083Z,84.80
2022-07-30T02:13:49.257Z,84.80
2022-07-30T02:16:39.238Z,84.70
2022-07-30T02:19:37.764Z,84.70
2022-07-30T02:22:31.673Z,84.80
2022-07-30T02:25:21.810Z,84.80
2022-07-30T02:28:11.912Z,84.90
2022-07-30T02:31:01.105Z,84.90
2022-07-30T02:33:50.898Z,85.00
2022-07-30T02:36:37.667Z,85.00
2022-07-30T02:39:25.715Z,85.10
2022-07-30T02:42:14.938Z,85.20
2022-07-30T02:45:11.082Z,85.30
2022-07-30T02:48:03.910Z,85.40
2022-07-30T02:50:53.745Z,85.40
2022-07-30T02:53:41.013Z,85.40
2022-07-30T02:56:32.515Z,85.50
2022-07-30T02:59:21.924Z,85.60
2022-07-30T03:02:09.463Z,85.50
2022-07-30T03:04:57.461Z,85.60
2022-07-30T03:07:44.759Z,85.40
2022-07-30T03:10:33.144Z,85.40
2022-07-30T03:13:20.598Z,85.40
2022-07-30T03:16:10.512Z,85.70
2022-07-30T03:18:59.342Z,85.90
2022-07-30T03:21:46.939Z,86.00
2022-07-30T03:24:33.662Z,86.20
2022-07-30T03:27:19.652Z,86.20
2022-07-30T03:30:06.703Z,86.10
2022-07-30T03:32:53.524Z,86.00
2022-07-30T03:35:41.488Z,86.20
2022-07-30T03:38:28.233Z,86.50
2022-07-30T03:41:16.233Z,86.00
2022-07-30T03:44:04.924Z,85.70
2022-07-30T03:46:55.212Z,85.70
2022-07-30T03:49:41.251Z,85.90
2022-07-30T03:52:28.958Z,86.20
2022-07-30T03:55:16.892Z,86.40
2022-07-30T03:58:09.567Z,86.50
2022-07-30T04:00:55.212Z,86.60
2022-07-30T04:03:41.325Z,86.70
2022-07-30T04:06:27.056Z,86.60
2022-07-30T04:09:13.262Z,86.60
2022-07-30T04:11:58.864Z,86.50
2022-07-30T04:14:46.592Z,86.50
2022-07-30T04:17:47.040Z,86.50
2022-07-30T04:20:41.701Z,86.50
2022-07-30T04:23:28.395Z,86.50
2022-07-30T04:26:14.902Z,86.40
2022-07-30T04:29:01.684Z,86.50
2022-07-30T04:31:47.711Z,86.50
2022-07-30T04:34:55.415Z,86.70
2022-07-30T04:38:03.809Z,86.80
2022-07-30T04:40:51.292Z,87.10
2022-07-30T04:43:37.198Z,87.10
2022-07-30T04:46:24.525Z,87.20
2022-07-30T04:49:12.757Z,87.30
2022-07-30T04:52:00.383Z,87.60
2022-07-30T04:54:57.849Z,87.70
2022-07-30T04:57:43.818Z,87.80
2022-07-30T05:00:32.536Z,88.00
2022-07-30T05:03:20.526Z,88.20
2022-07-30T05:06:12.309Z,88.30
2022-07-30T05:09:01.881Z,88.50
2022-07-30T05:11:54.610Z,88.50
2022-07-30T05:14:40.125Z,88.80
2022-07-30T05:17:25.771Z,89.10
2022-07-30T05:20:12.893Z,89.80
2022-07-30T05:23:18.438Z,90.20
2022-07-30T05:26:12.756Z,90.50
2022-07-30T05:29:04.080Z,90.80
2022-07-30T05:32:04.301Z,90.90
2022-07-30T05:34:55.040Z,91.10
2022-07-30T05:37:42.199Z,91.00
2022-07-30T05:40:28.312Z,90.90
2022-07-30T05:43:34.161Z,90.80
2022-07-30T05:46:19.545Z,89.80
2022-07-30T05:49:06.646Z,88.90
2022-07-30T05:51:52.322Z,86.90
2022-07-30T05:54:37.678Z,85.00
2022-07-30T05:57:48.889Z,82.70
2022-07-30T06:00:35.677Z,79.70
2022-07-30T06:03:24.690Z,77.40
2022-07-30T06:06:36.026Z,75.20
2022-07-30T06:09:24.317Z,72.80
2022-07-30T06:12:22.339Z,71.10
2022-07-30T06:15:09.416Z,69.70
2022-07-30T06:18:01.694Z,68.00
2022-07-30T06:21:08.147Z,67.50
2022-07-30T06:24:21.164Z,66.70
2022-07-30T06:27:19.347Z,65.80
2022-07-30T06:30:07.885Z,65.80
2022-07-30T06:32:53.428Z,66.70
2022-07-30T06:35:39.391Z,67.20
2022-07-30T06:38:24.940Z,68.20
2022-07-30T06:41:17.291Z,67.80
2022-07-30T06:44:10.384Z,67.90
2022-07-30T06:47:19.454Z,68.40
2022-07-30T06:50:05.591Z,69.30
2022-07-30T06:52:53.836Z,70.20
2022-07-30T06:55:39.914Z,70.40
2022-07-30T06:58:26.366Z,70.90
2022-07-30T07:01:26.040Z,71.60
2022-07-30T07:04:12.882Z,72.20
2022-07-30T07:06:59.788Z,72.40
2022-07-30T07:09:57.772Z,72.40
2022-07-30T07:13:02.953Z,72.60
2022-07-30T07:15:48.776Z,73.00
2022-07-30T07:18:38.539Z,73.70
2022-07-30T07:21:24.661Z,73.70
2022-07-30T07:24:12.799Z,73.60
2022-07-30T07:27:15.950Z,73.60
2022-07-30T07:30:06.421Z,73.90
2022-07-30T07:32:58.658Z,74.20
2022-07-30T07:35:49.368Z,74.40
2022-07-30T07:38:42.640Z,74.30
2022-07-30T07:41:27.909Z,74.60
2022-07-30T07:44:13.567Z,74.70
2022-07-30T07:47:01.994Z,74.80
2022-07-30T07:49:56.064Z,74.30
2022-07-30T07:52:41.693Z,75.00
2022-07-30T07:55:27.476Z,74.90
2022-07-30T07:58:14.686Z,74.30
2022-07-30T08:01:08.422Z,74.70
2022-07-30T08:04:26.532Z,74.70
2022-07-30T08:07:31.991Z,75.20
2022-07-30T08:10:26.916Z,75.20
2022-07-30T08:13:49.243Z,74.70
2022-07-30T08:16:50.585Z,75.30
2022-07-30T08:19:44.795Z,75.10
2022-07-30T08:22:35.990Z,74.80
2022-07-30T08:25:24.479Z,75.00
2022-07-30T08:28:36.213Z,74.60
2022-07-30T08:31:16.296Z,74.40
2022-07-30T08:34:04.607Z,73.20
2022-07-30T08:36:50.301Z,73.20
2022-07-30T08:39:38.710Z,73.20
2022-07-30T08:42:24.484Z,73.10
2022-07-30T08:45:13.883Z,72.90
2022-07-30T08:48:07.444Z,72.10
2022-07-30T08:51:03.624Z,71.60
2022-07-30T08:54:01.765Z,70.80
2022-07-30T08:56:50.072Z,70.20
2022-07-30T09:00:00.143Z,70.00
2022-07-30T09:02:46.179Z,69.10
2022-07-30T09:05:31.810Z,68.70
2022-07-30T09:08:18.704Z,68.60
2022-07-30T09:11:05.353Z,68.60
2022-07-30T09:13:51.239Z,67.60
2022-07-30T09:16:43.112Z,67.20
2022-07-30T09:19:28.415Z,66.70
2022-07-30T09:22:15.192Z,66.30
2022-07-30T09:25:41.085Z,65.80
2022-07-30T09:28:45.404Z,66.10
2022-07-30T09:31:59.723Z,65.20
2022-07-30T09:35:15.253Z,63.30
2022-07-30T09:38:24.029Z,63.60
2022-07-30T09:41:36.306Z,62.20
2022-07-30T09:44:29.809Z,61.60
2022-07-30T09:47:34.559Z,61.80
2022-07-30T09:50:29.966Z,60.70
2022-07-30T09:53:16.615Z,60.10
2022-07-30T09:56:30.128Z,59.60
2022-07-30T09:59:34.824Z,58.50
2022-07-30T10:02:21.395Z,58.60
2022-07-30T10:05:30.828Z,58.00
2022-07-30T10:08:19.027Z,56.90
2022-07-30T10:11:09.727Z,56.10
2022-07-30T10:13:57.446Z,55.70
2022-07-30T10:16:43.212Z,55.50
2022-07-30T10:19:40.048Z,55.40
2022-07-30T10:23:10.008Z,55.40
2022-07-30T10:26:20.069Z,55.20
2022-07-30T10:29:44.954Z,54.30
2022-07-30T10:32:32.094Z,54.20
2022-07-30T10:35:31.114Z,53.20
2022-07-30T10:38:32.432Z,52.80
2022-07-30T10:41:56.238Z,52.60
2022-07-30T10:45:09.476Z,52.70
2022-07-30T10:48:04.928Z,52.00
2022-07-30T10:51:01.697Z,50.50
2022-07-30T10:53:50.047Z,49.80
2022-07-30T10:56:35.863Z,49.60
2022-07-30T10:59:25.963Z,49.30
2022-07-30T11:02:14.273Z,49.00
2022-07-30T11:05:18.700Z,48.40
2022-07-30T11:08:42.901Z,47.60
2022-07-30T11:12:01.677Z,47.20
2022-07-30T11:14:52.587Z,46.70
2022-07-30T11:18:00.868Z,46.60
2022-07-30T11:21:20.777Z,46.20
2022-07-30T11:24:48.951Z,47.10
2022-07-30T11:27:48.464Z,46.50
2022-07-30T11:30:35.266Z,46.90
2022-07-30T11:33:23.220Z,46.10
2022-07-30T11:36:20.977Z,45.30
2022-07-30T11:39:10.341Z,44.70
2022-07-30T11:42:27.925Z,44.20
2022-07-30T11:45:16.871Z,44.70
2022-07-30T11:48:10.446Z,44.40
2022-07-30T11:51:00.722Z,44.60
2022-07-30T11:54:06.388Z,45.00
2022-07-30T11:57:02.141Z,44.80
2022-07-30T11:59:56.619Z,44.90
2022-07-30T12:05:35.251Z,42.60
2022-07-30T12:08:36.170Z,41.70
2022-07-30T12:11:24.387Z,41.80
2022-07-30T12:14:09.908Z,42.10
2022-07-30T12:16:55.526Z,42.00
2022-07-30T12:19:48.155Z,41.30
2022-07-30T12:22:34.782Z,41.30
2022-07-30T12:25:20.799Z,41.70
2022-07-30T12:28:06.690Z,42.10
2022-07-30T12:30:53.380Z,41.50
2022-07-30T12:33:45.443Z,41.60
2022-07-30T12:36:33.716Z,41.60
2022-07-30T12:39:27.342Z,42.00
2022-07-30T12:42:22.203Z,41.60
2022-07-30T12:45:25.259Z,42.00
2022-07-30T12:48:11.897Z,41.20
2022-07-30T12:51:07.841Z,41.30
2022-07-30T12:53:54.204Z,42.10
2022-07-30T12:56:41.161Z,42.40
2022-07-30T12:59:27.410Z,42.30
2022-07-30T13:02:30.354Z,42.20
2022-07-30T13:05:15.944Z,42.10
2022-07-30T13:08:01.591Z,41.90
2022-07-30T13:11:00.863Z,41.50
2022-07-30T13:13:50.760Z,42.00
2022-07-30T13:16:37.004Z,42.30
2022-07-30T13:19:22.600Z,42.20
2022-07-30T13:22:08.705Z,42.50
2022-07-30T13:24:56.213Z,42.50
2022-07-30T13:27:41.602Z,42.30
2022-07-30T13:30:27.167Z,41.90
2022-07-30T13:33:15.334Z,41.30
2022-07-30T13:36:01.005Z,40.50
2022-07-30T13:38:52.800Z,40.10
2022-07-30T13:41:41.715Z,39.40
2022-07-30T13:44:26.995Z,38.50
2022-07-30T13:47:12.512Z,38.50
2022-07-30T13:49:57.960Z,39.00
2022-07-30T13:52:44.015Z,39.70
2022-07-30T13:55:29.992Z,39.90
2022-07-30T13:58:15.816Z,40.10
2022-07-30T14:01:01.678Z,40.40
2022-07-30T14:03:50.623Z,40.50
2022-07-30T14:06:36.351Z,40.00
2022-07-30T14:09:22.257Z,39.90
2022-07-30T14:12:08.243Z,39.10
2022-07-30T14:14:57.103Z,38.90
2022-07-30T14:17:42.922Z,39.20
2022-07-30T14:20:44.541Z,39.20
2022-07-30T14:23:32.440Z,39.30
2022-07-30T14:26:18.007Z,39.50
2022-07-30T14:29:05.880Z,39.60
2022-07-30T14:31:53.929Z,40.10
2022-07-30T14:34:40.556Z,39.40
2022-07-30T14:37:27.461Z,39.60
2022-07-30T14:40:13.651Z,39.70
2022-07-30T14:42:59.610Z,40.00
2022-07-30T14:45:44.890Z,40.20
2022-07-30T14:48:32.462Z,40.50
2022-07-30T14:51:26.024Z,40.70
2022-07-30T14:54:13.040Z,40.80
2022-07-30T14:56:58.848Z,40.70
2022-07-30T14:59:44.595Z,41.00
2022-07-30T15:02:30.520Z,41.30
2022-07-30T15:05:16.156Z,41.50
2022-07-30T15:08:02.583Z,41.80
2022-07-30T15:10:48.599Z,41.80
2022-07-30T15:13:34.021Z,42.20
2022-07-30T15:16:21.285Z,42.30
2022-07-30T15:19:06.920Z,42.30
2022-07-30T15:21:52.448Z,42.80
2022-07-30T15:24:38.075Z,42.70
2022-07-30T15:27:33.650Z,43.10
2022-07-30T15:30:20.039Z,43.20
2022-07-30T15:33:05.632Z,43.60
2022-07-30T15:35:51.693Z,43.80
2022-07-30T15:38:37.952Z,43.80
2022-07-30T15:41:23.712Z,43.70
2022-07-30T15:44:13.832Z,44.00
2022-07-30T15:47:00.102Z,43.80
2022-07-30T15:49:45.981Z,43.80
2022-07-30T15:52:31.369Z,43.70
2022-07-30T15:55:17.245Z,43.70
2022-07-30T15:58:02.721Z,43.00
2022-07-30T16:00:48.361Z,42.80
2022-07-30T16:03:34.172Z,42.60
2022-07-30T16:06:19.870Z,42.40
2022-07-30T16:09:05.255Z,42.70
2022-07-30T16:11:50.720Z,42.10
2022-07-30T16:14:36.473Z,41.70
2022-07-30T16:17:21.777Z,41.60
2022-07-30T16:20:08.040Z,41.90
2022-07-30T16:22:55.152Z,42.00
2022-07-30T16:25:41.387Z,42.30
2022-07-30T16:28:27.022Z,42.50
2022-07-30T16:31:12.649Z,42.70
2022-07-30T16:33:58.149Z,43.00
2022-07-30T16:36:44.234Z,43.40
2022-07-30T16:39:30.005Z,43.70
2022-07-30T16:42:15.909Z,43.70
2022-07-30T16:45:03.499Z,43.80
2022-07-30T16:47:49.167Z,43.80
2022-07-30T16:50:34.833Z,43.80
2022-07-30T16:53:20.487Z,44.20
2022-07-30T16:56:06.035Z,44.50
2022-07-30T16:58:51.171Z,44.80
2022-07-30T17:01:39.397Z,45.20
2022-07-30T17:04:24.881Z,45.50
2022-07-30T17:07:13.710Z,45.60
2022-07-30T17:09:58.991Z,45.50
2022-07-30T17:12:50.804Z,45.90
2022-07-30T17:15:37.054Z,46.10
2022-07-30T17:18:22.665Z,46.60
2022-07-30T17:21:08.411Z,47.00
2022-07-30T17:23:53.733Z,47.40
2022-07-30T17:26:43.632Z,47.80
2022-07-30T17:29:29.748Z,48.20
2022-07-30T17:32:15.642Z,48.70
2022-07-30T17:35:05.410Z,49.00
2022-07-30T17:37:51.037Z,49.20
2022-07-30T17:40:39.812Z,50.40
2022-07-30T17:43:25.496Z,50.00
2022-07-30T17:46:11.075Z,50.00
2022-07-30T17:48:58.864Z,50.20
2022-07-30T17:51:45.405Z,50.40
2022-07-30T17:54:31.231Z,50.80
2022-07-30T17:57:16.897Z,51.00
2022-07-30T18:00:07.029Z,51.00
2022-07-30T18:02:53.138Z,51.10
2022-07-30T18:05:40.900Z,51.00
2022-07-30T18:08:32.268Z,51.10
2022-07-30T18:11:18.156Z,51.30
2022-07-30T18:14:03.876Z,51.60
2022-07-30T18:16:49.770Z,51.70
2022-07-30T18:19:35.486Z,51.80
2022-07-30T18:22:29.126Z,52.00
2022-07-30T18:25:18.056Z,52.10
2022-07-30T18:28:05.485Z,52.30
2022-07-30T18:30:51.371Z,52.50
2022-07-30T18:33:36.845Z,52.80
2022-07-30T18:36:22.395Z,53.00
2022-07-30T18:39:08.164Z,53.10
2022-07-30T18:41:56.096Z,53.40
2022-07-30T18:44:41.708Z,53.50
2022-07-30T18:47:27.198Z,53.70
2022-07-30T18:50:15.283Z,54.00
2022-07-30T18:53:15.198Z,54.00
2022-07-30T18:56:01.332Z,54.10
2022-07-30T18:58:47.239Z,54.30
2022-07-30T19:01:35.236Z,54.00
2022-07-30T19:04:22.958Z,54.10
2022-07-30T19:07:08.315Z,54.10
2022-07-30T19:10:01.694Z,54.20
2022-07-30T19:12:50.204Z,54.10
2022-07-30T19:15:35.792Z,54.00
2022-07-30T19:18:24.303Z,54.10
2022-07-30T19:21:13.942Z,54.10
2022-07-30T19:23:59.988Z,54.20
2022-07-30T19:26:45.447Z,54.30
2022-07-30T19:29:31.160Z,54.50
2022-07-30T19:32:16.844Z,54.70
2022-07-30T19:35:02.753Z,54.80
2022-07-30T19:37:48.945Z,55.00
2022-07-30T19:40:34.425Z,55.20
2022-07-30T19:43:23.963Z,55.10
2022-07-30T19:46:12.664Z,55.10
2022-07-30T19:49:01.684Z,55.20
2022-07-30T19:52:10.805Z,55.90
2022-07-30T19:54:52.582Z,55.30
2022-07-30T20:00:55.022Z,55.70
2022-07-30T20:03:41.339Z,56.00
2022-07-30T20:06:31.232Z,56.30
2022-07-30T20:09:17.631Z,56.70
2022-07-30T20:12:03.246Z,57.10
2022-07-30T20:14:54.948Z,57.40
2022-07-30T20:17:40.506Z,57.80
2022-07-30T20:20:26.932Z,58.10
2022-07-30T20:23:12.750Z,58.40
2022-07-30T20:25:58.515Z,58.90
2022-07-30T20:28:52.532Z,59.70
2022-07-30T20:31:42.884Z,60.60
2022-07-30T20:34:32.467Z,60.40
2022-07-30T20:37:22.720Z,61.00
2022-07-30T20:40:08.931Z,61.80
2022-07-30T20:42:55.557Z,62.50
2022-07-30T20:45:49.453Z,62.80
2022-07-30T20:48:35.820Z,63.30
2022-07-30T20:51:33.494Z,63.60
2022-07-30T20:54:29.029Z,64.10
2022-07-30T20:57:20.224Z,64.40
2022-07-30T21:00:25.522Z,64.70
2022-07-30T21:03:14.161Z,65.70
2022-07-30T21:05:59.245Z,65.20
2022-07-30T21:08:45.299Z,65.40
2022-07-30T21:11:31.293Z,65.90
2022-07-30T21:14:22.085Z,66.50
2022-07-30T21:17:11.213Z,67.10
2022-07-30T21:19:56.480Z,67.40
2022-07-30T21:22:42.149Z,67.50
2022-07-30T21:25:33.127Z,68.00
2022-07-30T21:28:27.675Z,68.50
2022-07-30T21:31:14.349Z,68.80
2022-07-30T21:34:02.446Z,69.20
2022-07-30T21:36:48.041Z,69.30
2022-07-30T21:39:39.667Z,69.50
2022-07-30T21:42:30.435Z,69.50
2022-07-30T21:45:16.204Z,69.10
2022-07-30T21:48:01.623Z,69.20
2022-07-30T21:50:47.298Z,69.40
2022-07-30T21:53:44.831Z,69.40
2022-07-30T21:56:31.235Z,69.40
2022-07-30T21:59:21.961Z,69.50
2022-07-30T22:02:18.665Z,69.70
2022-07-30T22:05:04.261Z,69.50
2022-07-30T22:07:49.695Z,69.70
2022-07-30T22:10:36.447Z,69.70
2022-07-30T22:13:31.066Z,69.70
2022-07-30T22:16:18.282Z,69.70
2022-07-30T22:19:04.660Z,69.70
2022-07-30T22:22:03.584Z,70.00
2022-07-30T22:24:57.251Z,70.00
2022-07-30T22:27:55.790Z,70.10
2022-07-30T22:30:43.565Z,70.20
2022-07-30T22:33:30.466Z,70.10
2022-07-30T22:36:16.553Z,70.10
2022-07-30T22:39:04.784Z,70.20
2022-07-30T22:41:54.704Z,70.30
2022-07-30T22:44:45.656Z,70.30
2022-07-30T22:47:53.841Z,70.30
2022-07-30T22:50:39.976Z,70.30
2022-07-30T22:54:11.282Z,70.20
2022-07-30T22:56:32.364Z,70.30
2022-07-30T22:59:18.025Z,70.50
2022-07-30T23:02:23.599Z,70.60
2022-07-30T23:05:14.846Z,70.60
2022-07-30T23:08:00.228Z,70.70
2022-07-30T23:10:46.738Z,71.50
2022-07-30T23:12:16.711Z,56.10
2022-07-30T23:13:35.663Z,70.80
2022-07-30T23:16:25.307Z,70.60
2022-07-30T23:19:14.430Z,70.50
2022-07-30T23:22:07.629Z,71.40
2022-07-30T23:24:55.511Z,70.60
2022-07-30T23:27:47.590Z,70.70
2022-07-30T23:30:34.577Z,70.60
2022-07-30T23:33:20.142Z,70.50
2022-07-30T23:36:07.299Z,70.40
2022-07-30T23:38:52.724Z,70.50
2022-07-30T23:41:40.528Z,70.20
2022-07-30T23:44:35.461Z,70.20
2022-07-30T23:47:22.420Z,70.10
2022-07-30T23:50:31.786Z,70.10
2022-07-30T23:53:17.648Z,70.10
2022-07-30T23:56:03.643Z,70.20
2022-07-30T23:58:49.328Z,69.90
